Time;durP1;ratioP1;P1;durP2;ratioP2;P2;SDS_P1;SDS_P2;PMS_P1;PMS_P2;Temp;Humidity;BMP_temperature;BMP_pressure;BME280_temperature;BME280_humidity;BME280_pressure;Samples;Min_cycle;Max_cycle;Signal;HPM_P1;HPM_P2
2022/09/05 00:02:30;;;;;;;0.60;0.60;;;16.60;78.70;15.60;96502.00;;;;5113680;28;20194;-58
2022/09/05 00:05:30;;;;;;;0.60;0.60;;;16.30;78.50;15.50;96494.00;;;;5113517;28;20553;-59
2022/09/05 00:08:07;;;;;;;1.20;1.10;;;16.10;79.20;15.60;96479.00;;;;5066850;28;20220;-58
2022/09/05 00:10:43;;;;;;;1.00;1.00;;;16.20;80.10;15.70;96489.00;;;;5113579;28;20225;-58
2022/09/05 00:13:21;;;;;;;0.67;0.67;;;16.20;80.30;15.50;96494.00;;;;5095674;28;20624;-60
2022/09/05 00:16:19;;;;;;;0.80;0.80;;;16.10;79.50;15.40;96491.00;;;;5095592;28;20316;-58
2022/09/05 00:19:00;;;;;;;0.80;0.80;;;16.00;80.10;15.30;96494.00;;;;5114568;28;20388;-58
2022/09/05 00:21:53;;;;;;;0.50;0.50;;;16.00;80.90;15.40;96484.00;;;;5117052;28;20312;-59
2022/09/05 00:24:42;;;;;;;0.50;0.50;;;16.00;81.20;15.50;96478.00;;;;5099032;28;20309;-58
2022/09/05 00:27:19;;;;;;;1.03;0.73;;;16.00;81.50;15.40;96478.00;;;;5117010;28;20659;-58
2022/09/05 00:30:06;;;;;;;0.60;0.60;;;16.10;81.00;15.40;96488.00;;;;5117103;28;20696;-58
2022/09/05 00:32:54;;;;;;;0.70;0.70;;;16.00;80.80;15.30;96480.00;;;;5116991;28;20300;-58
2022/09/05 00:35:42;;;;;;;1.57;1.13;;;16.00;80.40;15.20;96479.00;;;;5098915;28;20197;-57
2022/09/05 00:38:15;;;;;;;0.80;0.80;;;15.90;81.90;15.30;96480.00;;;;5116894;28;20257;-58
2022/09/05 00:40:48;;;;;;;0.87;0.87;;;15.90;82.40;15.30;96486.00;;;;5116962;28;20273;-57
2022/09/05 00:43:22;;;;;;;1.47;1.37;;;15.90;82.60;15.30;96487.00;;;;5116671;28;20252;-58
2022/09/05 00:45:58;;;;;;;0.53;0.53;;;15.90;83.20;15.30;96475.00;;;;5116780;28;20194;-57
2022/09/05 00:48:35;;;;;;;1.00;1.00;;;15.90;83.10;15.40;96469.00;;;;5116679;28;20276;-58
2022/09/05 00:51:37;;;;;;;0.40;0.40;;;15.90;83.10;15.40;96479.00;;;;5098914;28;20205;-61
2022/09/05 00:54:24;;;;;;;0.90;0.90;;;15.90;82.70;15.30;96473.00;;;;5110334;28;20316;-58
2022/09/05 00:57:07;;;;;;;0.57;0.57;;;15.90;82.60;15.30;96473.00;;;;5116535;28;20614;-58
2022/09/05 01:00:03;;;;;;;0.73;0.73;;;15.90;82.20;15.30;96480.00;;;;5116416;28;20245;-57
2022/09/05 01:03:01;;;;;;;0.87;0.87;;;15.90;82.00;15.30;96475.00;;;;5116656;28;20592;-58
2022/09/05 01:05:45;;;;;;;0.80;0.80;;;15.90;82.00;15.20;96474.00;;;;5091284;28;20696;-58
2022/09/05 01:08:45;;;;;;;0.70;0.70;;;15.80;81.30;15.00;96473.00;;;;5116606;28;20194;-58
2022/09/05 01:11:27;;;;;;;0.60;0.60;;;15.70;81.40;14.90;96455.00;;;;5116335;28;20226;-58
2022/09/05 01:14:15;;;;;;;1.00;1.00;;;15.60;82.00;14.70;96469.00;;;;5116276;28;20613;-58
2022/09/05 01:17:11;;;;;;;0.80;0.80;;;15.40;82.30;14.70;96458.00;;;;5098522;28;20286;-60
2022/09/05 01:20:04;;;;;;;1.00;1.00;;;15.30;83.20;14.70;96459.00;;;;5118272;28;20204;-63
2022/09/05 01:23:22;;;;;;;0.60;0.60;;;15.30;83.60;14.50;96461.00;;;;5117124;28;20296;-58
2022/09/05 01:26:12;;;;;;;1.00;1.00;;;15.20;83.60;14.60;96465.00;;;;5109236;28;20230;-58
2022/09/05 01:28:49;;;;;;;0.70;0.70;;;15.20;85.60;14.80;96459.00;;;;5116024;28;20309;-57
2022/09/05 01:31:26;;;;;;;1.23;1.23;;;15.30;85.50;14.80;96463.00;;;;5115436;28;20657;-58
2022/09/05 01:34:08;;;;;;;0.60;0.60;;;15.40;85.10;14.80;96458.00;;;;5116064;28;20304;-58
2022/09/05 01:36:57;;;;;;;0.80;0.80;;;15.40;85.00;14.80;96464.00;;;;5116140;28;20250;-58
2022/09/05 01:39:43;;;;;;;1.20;1.20;;;15.40;85.10;14.80;96462.00;;;;5097802;28;20549;-58
2022/09/05 01:42:28;;;;;;;0.60;0.60;;;15.40;85.10;14.70;96456.00;;;;5115910;28;20198;-58
2022/09/05 01:45:04;;;;;;;0.97;0.97;;;15.40;84.30;14.60;96452.00;;;;5119945;28;20240;-62
2022/09/05 01:47:49;;;;;;;0.50;0.50;;;15.30;84.10;14.50;96459.00;;;;5115908;28;20205;-60
2022/09/05 01:50:39;;;;;;;1.57;1.37;;;15.20;83.70;14.50;96446.00;;;;5115946;28;20700;-57
2022/09/05 01:53:24;;;;;;;0.50;0.50;;;15.20;84.20;14.50;96449.00;;;;5115758;28;20225;-58
2022/09/05 01:56:32;;;;;;;0.63;0.63;;;15.10;84.90;14.50;96452.00;;;;5115576;28;20218;-58
2022/09/05 01:59:20;;;;;;;0.90;0.90;;;15.10;85.50;14.50;96463.00;;;;5115769;28;20236;-56
2022/09/05 02:02:18;;;;;;;0.67;0.67;;;14.60;86.50;14.60;96455.00;;;;5097487;28;20597;-58
2022/09/05 02:05:13;;;;;;;1.40;0.70;;;15.20;85.10;14.60;96447.00;;;;5116679;28;20228;-60
2022/09/05 02:08:16;;;;;;;0.70;0.70;;;15.20;85.00;14.60;96453.00;;;;5088788;28;20612;-58
2022/09/05 02:11:03;;;;;;;0.60;0.60;;;15.30;84.50;14.60;96461.00;;;;5115476;28;20637;-58
2022/09/05 02:14:01;;;;;;;0.70;0.70;;;15.20;86.00;14.70;96465.00;;;;5115396;28;20217;-58
2022/09/05 02:16:42;;;;;;;0.57;0.57;;;15.30;85.50;14.60;96459.00;;;;5115189;28;20285;-58
2022/09/05 02:19:19;;;;;;;0.60;0.60;;;15.30;84.60;14.50;96461.00;;;;5115292;28;20218;-57
2022/09/05 02:21:59;;;;;;;0.70;0.70;;;15.20;84.70;14.60;96454.00;;;;5115127;28;20206;-58
2022/09/05 02:24:35;;;;;;;0.90;0.90;;;15.20;84.70;14.50;96460.00;;;;5115117;28;20243;-58
2022/09/05 02:27:27;;;;;;;0.90;0.90;;;15.10;85.00;14.30;96457.00;;;;5115236;28;20315;-56
2022/09/05 02:30:07;;;;;;;0.70;0.70;;;15.00;84.90;14.20;96454.00;;;;5115154;28;20230;-58
2022/09/05 02:32:53;;;;;;;2.27;1.00;;;15.00;99.90;14.40;96451.00;;;;5115155;28;20205;-58
2022/09/05 02:35:30;;;;;;;0.73;0.73;;;14.90;86.40;14.30;96458.00;;;;5114947;28;20226;-58
2022/09/05 02:38:04;;;;;;;0.70;0.70;;;;;14.30;96457.00;;;;5115007;28;20671;-57
2022/09/05 02:40:43;;;;;;;0.73;0.73;;;14.80;99.90;14.20;96450.00;;;;5114992;28;20217;-57
2022/09/05 02:43:20;;;;;;;0.70;0.70;;;14.70;87.50;14.30;96455.00;;;;5113830;28;20213;-59
2022/09/05 02:45:59;;;;;;;1.57;1.30;;;14.80;89.80;14.20;96446.00;;;;5114839;28;20223;-58
2022/09/05 02:48:32;;;;;;;0.67;0.67;;;;;14.20;96450.00;;;;5096903;28;20206;-58
2022/09/05 02:51:15;;;;;;;0.70;0.70;;;14.80;84.30;14.10;96446.00;;;;5096942;28;20238;-58
2022/09/05 02:53:48;;;;;;;0.67;0.67;;;14.80;85.50;14.10;96450.00;;;;5096829;28;20292;-57
2022/09/05 02:56:40;;;;;;;0.90;0.90;;;14.70;85.50;13.90;96456.00;;;;5114698;28;20194;-58
2022/09/05 02:59:15;;;;;;;0.70;0.70;;;;;13.90;96449.00;;;;5114742;28;20288;-58
2022/09/05 03:02:00;;;;;;;0.73;0.73;;;14.70;94.60;14.00;96449.00;;;;5096817;28;20198;-58
2022/09/05 03:04:36;;;;;;;1.43;0.93;;;14.70;86.50;14.10;96449.00;;;;5114567;28;20596;-60
2022/09/05 03:07:19;;;;;;;0.97;0.90;;;14.70;89.80;14.00;96443.00;;;;5114567;28;20174;-58
2022/09/05 03:10:18;;;;;;;0.70;0.70;;;14.70;87.20;14.10;96443.00;;;;5114612;28;20193;-58
2022/09/05 03:13:22;;;;;;;0.80;0.80;;;14.70;87.60;14.00;96449.00;;;;5114530;28;20193;-58
2022/09/05 03:16:30;;;;;;;0.87;0.87;;;14.70;88.10;14.00;96443.00;;;;5096445;28;20201;-58
2022/09/05 03:19:40;;;;;;;0.73;0.67;;;14.70;87.70;14.00;96450.00;;;;5114298;28;20592;-58
2022/09/05 03:23:02;;;;;;;0.80;0.80;;;14.60;88.40;13.90;96447.00;;;;5080123;28;20217;-58
2022/09/05 03:26:34;;;;;;;0.63;0.63;;;14.60;88.20;13.90;96442.00;;;;5066242;28;20242;-58
2022/09/05 03:29:43;;;;;;;0.60;0.60;;;14.50;88.30;13.90;96451.00;;;;5114086;28;20190;-58
2022/09/05 03:33:04;;;;;;;0.87;0.87;;;14.50;87.60;13.80;96441.00;;;;5114485;28;20550;-60
2022/09/05 03:36:21;;;;;;;0.70;0.70;;;14.50;90.90;13.80;96434.00;;;;5035564;28;20221;-57
2022/09/05 03:39:39;;;;;;;0.60;0.60;;;14.40;88.20;13.90;96433.00;;;;5065281;28;20624;-60
2022/09/05 03:42:37;;;;;;;0.50;0.50;;;14.40;87.20;13.90;96432.00;;;;5113963;28;20221;-58
2022/09/05 03:45:52;;;;;;;0.70;0.70;;;14.50;87.00;13.80;96430.00;;;;5113973;28;20210;-58
2022/09/05 03:48:58;;;;;;;0.60;0.60;;;14.50;89.60;13.80;96432.00;;;;5114011;28;20221;-57
2022/09/05 03:51:42;;;;;;;0.60;0.60;;;14.40;87.40;13.90;96435.00;;;;5113917;28;20205;-58
2022/09/05 03:54:36;;;;;;;0.60;0.60;;;14.50;86.90;13.90;96438.00;;;;5113316;28;20596;-57
2022/09/05 03:57:24;;;;;;;0.90;0.90;;;14.60;86.70;14.00;96439.00;;;;5095910;28;20682;-56
2022/09/05 04:00:20;;;;;;;0.50;0.50;;;14.60;86.50;14.00;96441.00;;;;5113818;28;20222;-58
2022/09/05 04:03:06;;;;;;;0.80;0.80;;;14.60;87.20;14.00;96436.00;;;;5075275;28;20510;-58
2022/09/05 04:05:38;;;;;;;0.57;0.57;;;14.60;87.20;13.80;96434.00;;;;5113775;28;20271;-58
2022/09/05 04:08:14;;;;;;;0.97;0.97;;;14.50;86.50;13.80;96427.00;;;;5114301;28;20708;-58
2022/09/05 04:10:52;;;;;;;1.07;1.07;;;14.40;86.70;13.70;96425.00;;;;5096281;28;20224;-58
2022/09/05 04:13:26;;;;;;;1.03;1.03;;;14.30;86.30;13.60;96425.00;;;;5113686;28;20205;-58
2022/09/05 04:16:10;;;;;;;0.90;0.90;;;14.30;86.70;13.60;96422.00;;;;5113647;28;20221;-57
2022/09/05 04:18:44;;;;;;;0.53;0.53;;;14.20;86.60;13.60;96423.00;;;;5095663;28;20705;-58
2022/09/05 04:21:17;;;;;;;6.30;1.37;;;14.20;87.60;13.60;96427.00;;;;5113568;28;20374;-58
2022/09/05 04:24:05;;;;;;;0.60;0.60;;;14.20;88.00;13.60;96428.00;;;;5113411;28;20220;-58
2022/09/05 04:27:01;;;;;;;0.93;0.93;;;14.30;88.20;13.50;96434.00;;;;5113521;28;20222;-58
2022/09/05 04:29:47;;;;;;;0.60;0.60;;;14.20;88.20;13.60;96429.00;;;;5113889;28;20240;-58
2022/09/05 04:32:33;;;;;;;0.90;0.90;;;14.30;88.20;13.70;96429.00;;;;5113402;28;20245;-60
2022/09/05 04:35:31;;;;;;;1.00;1.00;;;14.30;87.80;13.80;96423.00;;;;5095356;28;20313;-55
2022/09/05 04:38:11;;;;;;;0.80;0.80;;;14.40;87.30;13.70;96432.00;;;;5110900;28;20238;-60
2022/09/05 04:40:48;;;;;;;1.23;1.13;;;14.30;86.10;13.40;96440.00;;;;5095326;28;20202;-58
2022/09/05 04:43:29;;;;;;;0.53;0.53;;;14.20;86.50;13.40;96428.00;;;;5113311;28;20675;-60
2022/09/05 04:46:10;;;;;;;0.70;0.70;;;14.00;87.30;13.30;96443.00;;;;5113689;28;20224;-58
2022/09/05 04:48:47;;;;;;;0.60;0.60;;;14.00;88.20;13.40;96436.00;;;;5113316;28;20629;-59
2022/09/05 04:52:07;;;;;;;0.93;0.93;;;14.00;89.10;13.60;96431.00;;;;5113171;28;20202;-58
2022/09/05 04:54:42;;;;;;;0.67;0.67;;;14.20;88.20;13.60;96439.00;;;;5094878;28;20226;-58
2022/09/05 04:57:21;;;;;;;1.60;1.00;;;14.10;88.40;13.50;96437.00;;;;5112917;28;20223;-58
2022/09/05 04:59:56;;;;;;;1.10;1.10;;;14.10;88.10;13.40;96436.00;;;;5112903;28;20197;-58
2022/09/05 05:02:35;;;;;;;0.80;0.80;;;14.10;88.60;13.50;96446.00;;;;5113127;28;20296;-58
2022/09/05 05:05:08;;;;;;;0.87;0.87;;;14.00;88.50;13.40;96446.00;;;;5095003;28;20190;-58
2022/09/05 05:07:48;;;;;;;0.50;0.50;;;14.00;88.20;13.40;96445.00;;;;5098342;28;20195;-58
2022/09/05 05:10:25;;;;;;;0.97;0.97;;;14.00;87.20;13.40;96447.00;;;;5116377;28;20202;-58
2022/09/05 05:13:05;;;;;;;0.73;0.73;;;13.90;88.00;13.40;96442.00;;;;5098334;28;20197;-60
2022/09/05 05:15:44;;;;;;;3.10;1.07;;;14.00;87.70;13.50;96457.00;;;;5116151;28;20221;-58
2022/09/05 05:18:24;;;;;;;0.60;0.60;;;14.20;87.70;13.60;96450.00;;;;5116232;28;20637;-58
2022/09/05 05:21:01;;;;;;;1.57;1.53;;;14.20;87.40;13.60;96461.00;;;;5116232;28;20206;-58
2022/09/05 05:23:37;;;;;;;0.97;0.97;;;14.40;87.80;13.80;96454.00;;;;5116093;28;20227;-58
2022/09/05 05:26:10;;;;;;;2.33;1.37;;;14.60;87.90;14.00;96466.00;;;;5116225;28;20224;-58
2022/09/05 05:28:51;;;;;;;0.90;0.90;;;14.70;86.90;14.10;96459.00;;;;5116021;28;20240;-58
2022/09/05 05:31:23;;;;;;;0.70;0.70;;;;;14.20;96466.00;;;;5116174;28;20190;-57
2022/09/05 05:33:53;;;;;;;0.60;0.60;;;;;14.30;96467.00;;;;5115936;28;20228;-57
2022/09/05 05:36:25;;;;;;;0.80;0.80;;;;;14.40;96467.00;;;;5116195;28;20641;-58
2022/09/05 05:38:57;;;;;;;0.80;0.80;;;15.00;84.90;14.30;96463.00;;;;5115864;28;20638;-59
2022/09/05 05:41:35;;;;;;;0.67;0.67;;;14.90;84.10;14.40;96475.00;;;;5116104;28;20206;-58
2022/09/05 05:44:13;;;;;;;0.70;0.67;;;14.90;85.50;14.40;96475.00;;;;5115899;28;20194;-59
2022/09/05 05:46:53;;;;;;;0.80;0.80;;;14.90;84.40;14.50;96473.00;;;;5115821;28;20194;-57
2022/09/05 05:49:44;;;;;;;1.07;1.07;;;15.00;84.30;14.60;96480.00;;;;5115729;28;20702;-57
2022/09/05 05:53:14;;;;;;;0.80;0.80;;;15.20;83.50;14.60;96487.00;;;;5097785;28;20297;-58
2022/09/05 05:56:00;;;;;;;1.13;1.13;;;15.20;84.10;14.50;96480.00;;;;5013576;28;20663;-58
2022/09/05 05:58:51;;;;;;;0.80;0.80;;;15.10;83.80;14.70;96493.00;;;;5013662;28;20284;-58
2022/09/05 06:02:21;;;;;;;0.70;0.70;;;15.20;84.10;14.70;96487.00;;;;5093344;28;20684;-58
2022/09/05 06:05:23;;;;;;;2.23;1.17;;;15.30;83.10;14.50;96487.00;;;;5115541;28;20205;-58
2022/09/05 06:08:20;;;;;;;0.60;0.60;;;15.20;82.90;14.40;96486.00;;;;5115589;28;20330;-58
2022/09/05 06:11:13;;;;;;;0.40;0.40;;;15.10;83.60;14.50;96496.00;;;;5097721;28;20204;-62
2022/09/05 06:14:26;;;;;;;0.67;0.67;;;15.10;99.90;14.50;96480.00;;;;5115359;28;20312;-59
2022/09/05 06:17:43;;;;;;;1.10;1.10;;;15.10;83.70;14.50;96488.00;;;;5080068;28;20206;-57
2022/09/05 06:21:01;;;;;;;0.63;0.63;;;15.10;84.10;14.50;96487.00;;;;5115312;28;20668;-61
2022/09/05 06:23:57;;;;;;;1.27;1.23;;;15.10;84.70;14.60;96478.00;;;;5075688;28;20225;-61
2022/09/05 06:27:13;;;;;;;1.20;1.20;;;15.10;85.10;14.60;96487.00;;;;5097196;28;20198;-62
2022/09/05 06:29:55;;;;;;;0.67;0.67;;;15.20;85.00;14.60;96493.00;;;;5071776;28;20194;-62
2022/09/05 06:32:46;;;;;;;3.60;1.10;;;15.20;84.10;14.70;96490.00;;;;5115094;28;20220;-59
2022/09/05 06:35:40;;;;;;;0.90;0.90;;;15.20;84.20;14.70;96496.00;;;;5114932;28;20305;-58
2022/09/05 06:38:41;;;;;;;0.50;0.50;;;15.20;84.60;14.60;96484.00;;;;5114927;28;20259;-58
2022/09/05 06:41:31;;;;;;;0.70;0.70;;;15.30;85.80;14.80;96492.00;;;;5115142;28;20202;-55
2022/09/05 06:44:36;;;;;;;0.80;0.80;;;15.40;86.70;15.00;96488.00;;;;5114735;28;20283;-59
2022/09/05 06:47:09;;;;;;;0.83;0.83;;;15.50;86.30;15.10;96493.00;;;;5114913;28;20637;-58
2022/09/05 06:50:09;;;;;;;11.57;8.50;;;15.60;86.50;15.30;96491.00;;;;5096795;28;20688;-60
2022/09/05 06:53:21;;;;;;;2.57;2.40;;;15.70;86.40;15.50;96495.00;;;;5110406;28;20239;-63
2022/09/05 06:56:32;;;;;;;0.97;0.97;;;16.00;85.40;15.60;96492.00;;;;5114558;28;20225;-58
2022/09/05 06:59:49;;;;;;;1.93;0.80;;;16.10;85.10;15.70;96489.00;;;;5107692;28;20228;-60
2022/09/05 07:02:30;;;;;;;0.80;0.80;;;16.20;84.70;15.70;96491.00;;;;5112527;28;20238;-58
2022/09/05 07:05:11;;;;;;;0.50;0.50;;;16.30;84.50;15.90;96489.00;;;;5114580;28;20197;-55
2022/09/05 07:07:48;;;;;;;0.60;0.60;;;16.40;84.50;16.00;96491.00;;;;5114516;28;20213;-58
2022/09/05 07:10:26;;;;;;;4.10;1.20;;;16.50;84.40;16.20;96494.00;;;;5114747;28;20205;-58
2022/09/05 07:13:04;;;;;;;0.87;0.87;;;16.60;84.30;16.30;96493.00;;;;5114359;28;20212;-56
2022/09/05 07:15:50;;;;;;;1.07;1.07;;;16.80;84.00;16.40;96490.00;;;;5114380;28;20256;-58
2022/09/05 07:18:28;;;;;;;0.70;0.70;;;16.90;84.60;16.50;96494.00;;;;5114370;28;20194;-59
2022/09/05 07:21:01;;;;;;;0.57;0.57;;;17.00;84.90;16.70;96491.00;;;;5114412;28;20741;-58
2022/09/05 07:24:00;;;;;;;1.87;0.90;;;17.10;84.90;16.80;96491.00;;;;5096208;28;20225;-58
2022/09/05 07:26:35;;;;;;;0.70;0.70;;;17.30;84.90;16.70;96495.00;;;;5060588;28;20292;-60
2022/09/05 07:29:05;;;;;;;0.70;0.70;;;17.30;84.80;16.80;96485.00;;;;5113294;28;20255;-58
2022/09/05 07:31:37;;;;;;;1.10;1.10;;;17.30;85.70;17.00;96493.00;;;;5114074;28;20240;-59
2022/09/05 07:34:12;;;;;;;0.50;0.50;;;17.40;85.50;17.20;96483.00;;;;5114125;28;20238;-61
2022/09/05 07:36:45;;;;;;;1.63;1.53;;;17.50;84.70;17.20;96491.00;;;;5114063;28;20201;-58
2022/09/05 07:39:20;;;;;;;0.83;0.83;;;17.70;83.20;17.50;96493.00;;;;5114084;28;20204;-58
2022/09/05 07:41:52;;;;;;;0.87;0.87;;;17.80;83.60;17.50;96494.00;;;;5114035;28;20194;-63
2022/09/05 07:44:26;;;;;;;1.00;1.00;;;17.90;83.40;17.60;96496.00;;;;5096046;28;20194;-59
2022/09/05 07:47:03;;;;;;;0.90;0.90;;;18.00;83.20;17.60;96493.00;;;;5113912;28;20218;-59
2022/09/05 07:49:35;;;;;;;0.90;0.90;;;18.10;83.80;17.80;96493.00;;;;5113797;28;20209;-59
2022/09/05 07:52:11;;;;;;;0.77;0.77;;;18.20;83.50;18.00;96492.00;;;;5113751;28;20202;-59
2022/09/05 07:54:40;;;;;;;0.73;0.73;;;18.40;83.10;18.20;96483.00;;;;5113668;28;20554;-58
2022/09/05 07:57:15;;;;;;;0.70;0.70;;;18.60;82.90;18.40;96492.00;;;;5113668;28;20202;-57
2022/09/05 07:59:45;;;;;;;0.80;0.80;;;18.70;82.70;18.50;96484.00;;;;5113682;28;20239;-59
2022/09/05 08:02:12;;;;;;;0.90;0.87;;;18.90;81.90;18.80;96485.00;;;;5113703;28;20209;-59
2022/09/05 08:04:40;;;;;;;0.90;0.90;;;19.20;81.20;18.90;96473.00;;;;5095610;28;20248;-59
2022/09/05 08:07:12;;;;;;;0.80;0.80;;;19.30;79.10;19.10;96483.00;;;;5113519;28;20214;-58
2022/09/05 08:09:46;;;;;;;0.53;0.53;;;19.50;77.80;19.40;96492.00;;;;5113626;28;20232;-59
2022/09/05 08:12:19;;;;;;;0.60;0.60;;;19.70;78.10;19.50;96490.00;;;;5113387;28;20563;-59
2022/09/05 08:15:04;;;;;;;0.50;0.50;;;19.80;77.80;19.90;96494.00;;;;5113481;28;20221;-59
2022/09/05 08:17:39;;;;;;;0.70;0.70;;;20.10;75.60;19.90;96492.00;;;;5113390;28;20577;-59
2022/09/05 08:20:27;;;;;;;0.70;0.70;;;20.30;73.20;20.20;96498.00;;;;5113534;28;20200;-59
2022/09/05 08:23:05;;;;;;;0.77;0.77;;;20.50;73.40;20.30;96492.00;;;;5113441;28;20254;-59
2022/09/05 08:25:36;;;;;;;0.60;0.60;;;20.60;70.60;20.60;96499.00;;;;5113540;28;20202;-61
2022/09/05 08:28:20;;;;;;;0.70;0.70;;;20.90;68.50;20.80;96486.00;;;;5113439;28;20267;-59
2022/09/05 08:30:58;;;;;;;0.40;0.40;;;21.10;67.00;20.90;96489.00;;;;5113318;28;20236;-59
2022/09/05 08:33:32;;;;;;;0.97;0.97;;;21.20;66.60;21.10;96499.00;;;;5113402;28;20737;-59
2022/09/05 08:36:07;;;;;;;0.90;0.87;;;21.30;64.70;21.00;96484.00;;;;5113165;28;20313;-59
2022/09/05 08:38:37;;;;;;;0.80;0.80;;;21.40;64.20;21.20;96485.00;;;;5113359;28;20197;-59
2022/09/05 08:41:16;;;;;;;0.95;0.95;;;21.50;63.40;21.30;96487.00;;;;5114308;28;20221;-58
2022/09/05 08:43:58;;;;;;;0.50;0.50;;;21.70;62.70;21.40;96476.00;;;;5116800;28;20613;-59
2022/09/05 08:46:34;;;;;;;0.40;0.40;;;21.80;62.40;21.60;96493.00;;;;5116738;28;20310;-58
2022/09/05 08:49:34;;;;;;;0.90;0.90;;;21.90;63.60;21.60;96485.00;;;;5116788;28;20198;-59
2022/09/05 08:52:09;;;;;;;0.90;0.90;;;22.00;59.60;21.60;96489.00;;;;5101580;28;20236;-59
2022/09/05 08:54:46;;;;;;;0.80;0.80;;;22.00;59.20;21.70;96489.00;;;;5116520;28;20658;-60
2022/09/05 08:57:22;;;;;;;0.68;0.68;;;22.20;59.00;22.00;96493.00;;;;5116644;28;20193;-58
2022/09/05 09:00:03;;;;;;;0.50;0.50;;;22.30;60.00;22.00;96492.00;;;;5116559;28;20274;-58
2022/09/05 09:03:04;;;;;;;0.50;0.50;;;22.40;57.70;22.30;96485.00;;;;5116460;28;20201;-60
2022/09/05 09:06:15;;;;;;;0.85;0.77;;;22.60;56.50;22.30;96495.00;;;;5116469;28;20229;-60
2022/09/05 09:09:06;;;;;;;0.50;0.50;;;22.70;54.00;22.30;96491.00;;;;5116448;28;20217;-60
2022/09/05 09:11:41;;;;;;;0.50;0.50;;;22.70;53.90;22.30;96487.00;;;;5116401;28;20178;-59
2022/09/05 09:14:38;;;;;;;0.30;0.30;;;22.70;53.90;22.40;96486.00;;;;5098521;28;20208;-59
2022/09/05 09:17:42;;;;;;;0.65;0.65;;;22.80;51.90;22.50;96474.00;;;;5116239;28;20241;-60
2022/09/05 09:20:25;;;;;;;0.57;0.57;;;;;22.90;96480.00;;;;5116326;28;20186;-59
2022/09/05 09:22:58;;;;;;;0.57;0.57;;;23.20;49.20;23.10;96487.00;;;;5116293;28;20202;-60
2022/09/05 09:25:31;;;;;;;0.50;0.50;;;23.30;47.80;23.20;96472.00;;;;5116246;28;20194;-60
2022/09/05 09:28:41;;;;;;;0.40;0.40;;;23.50;48.00;23.20;96485.00;;;;5116211;28;20423;-60
2022/09/05 09:31:22;;;;;;;0.40;0.40;;;23.50;46.20;23.50;96463.00;;;;5116436;28;20201;-62
2022/09/05 09:34:31;;;;;;;0.55;0.55;;;23.80;45.00;23.60;96475.00;;;;5116132;28;20312;-60
2022/09/05 09:37:57;;;;;;;0.65;0.65;;;23.90;44.70;23.90;96483.00;;;;5116043;28;20194;-62
2022/09/05 09:41:03;;;;;;;0.75;0.75;;;24.10;42.90;24.00;96469.00;;;;5116047;28;20232;-60
2022/09/05 09:44:01;;;;;;;0.90;0.90;;;24.30;44.70;24.10;96464.00;;;;5097953;28;20594;-60
2022/09/05 09:46:40;;;;;;;0.90;0.90;;;24.30;42.20;24.00;96471.00;;;;5115841;28;20259;-59
2022/09/05 09:49:31;;;;;;;0.73;0.73;;;24.40;42.10;24.20;96464.00;;;;5115876;28;20647;-58
2022/09/05 09:52:31;;;;;;;0.60;0.60;;;24.60;41.90;24.30;96459.00;;;;5115336;28;20198;-60
2022/09/05 09:56:04;;;;;;;0.90;0.90;;;24.70;40.00;24.60;96469.00;;;;5115808;28;20656;-59
2022/09/05 09:59:10;;;;;;;0.77;0.77;;;24.90;38.80;24.80;96465.00;;;;5119002;28;20202;-58
2022/09/05 10:01:52;;;;;;;0.80;0.80;;;25.00;38.80;25.00;96462.00;;;;5115777;28;20222;-58
2022/09/05 10:04:51;;;;;;;0.95;0.95;;;25.20;39.30;25.30;96464.00;;;;5116068;28;20209;-62
2022/09/05 10:08:04;;;;;;;0.77;0.77;;;25.50;38.30;25.20;96469.00;;;;5115464;28;20233;-60
2022/09/05 10:10:55;;;;;;;0.38;0.38;;;;;25.20;96455.00;;;;5115569;28;20285;-60
2022/09/05 10:13:41;;;;;;;0.60;0.60;;;25.50;38.10;25.60;96449.00;;;;5097650;28;20222;-59
2022/09/05 10:16:47;;;;;;;0.77;0.77;;;25.70;38.40;25.70;96447.00;;;;5115446;28;20294;-60
2022/09/05 10:19:45;;;;;;;0.73;0.73;;;25.90;37.40;25.90;96444.00;;;;5115251;28;20231;-57
2022/09/05 10:22:43;;;;;;;0.65;0.65;;;26.10;37.30;26.10;96449.00;;;;5115304;28;20260;-58
2022/09/05 10:25:41;;;;;;;0.50;0.50;;;26.30;37.50;26.30;96441.00;;;;5115110;28;20717;-62
2022/09/05 10:28:26;;;;;;;0.45;0.45;;;26.50;36.50;26.40;96439.00;;;;5097277;28;20178;-58
2022/09/05 10:31:07;;;;;;;0.50;0.50;;;26.60;33.90;26.50;96428.00;;;;5115122;28;20296;-60
2022/09/05 10:33:44;;;;;;;0.40;0.40;;;26.80;32.80;26.70;96409.00;;;;5115267;28;20222;-58
2022/09/05 10:36:24;;;;;;;0.70;0.70;;;26.90;32.80;26.70;96437.00;;;;5115002;28;20652;-58
2022/09/05 10:39:13;;;;;;;0.50;0.50;;;26.90;30.80;26.20;96414.00;;;;5115238;28;20224;-60
2022/09/05 10:41:48;;;;;;;0.60;0.60;;;26.70;31.30;27.00;96432.00;;;;5115302;28;20224;-63
2022/09/05 10:44:28;;;;;;;0.47;0.47;;;27.00;30.40;27.00;96413.00;;;;5115290;28;20658;-63
2022/09/05 10:47:14;;;;;;;0.55;0.55;;;27.30;30.00;27.20;96412.00;;;;5115095;28;20621;-66
2022/09/05 10:49:46;;;;;;;0.52;0.52;;;27.30;27.70;26.90;96436.00;;;;5115029;28;20205;-66
2022/09/05 10:52:21;;;;;;;0.70;0.70;;;27.20;27.70;26.30;96443.00;;;;5115048;28;20221;-65
2022/09/05 10:55:16;;;;;;;0.65;0.65;;;26.70;28.50;25.80;96442.00;;;;5114744;28;20657;-61
2022/09/05 10:58:00;;;;;;;0.88;0.88;;;26.30;29.00;25.80;96449.00;;;;5118347;28;20194;-59
2022/09/05 11:00:50;;;;;;;0.75;0.75;;;26.20;29.30;25.80;96443.00;;;;5114776;28;20255;-62
2022/09/05 11:03:28;;;;;;;0.95;0.95;;;26.10;29.90;25.70;96442.00;;;;5113780;28;20209;-60
2022/09/05 11:05:58;;;;;;;0.90;0.90;;;26.10;30.20;25.60;96442.00;;;;5115059;28;20190;-62
2022/09/05 11:08:41;;;;;;;0.50;0.50;;;26.00;30.90;26.00;96415.00;;;;5115055;28;20198;-60
2022/09/05 11:11:17;;;;;;;0.80;0.80;;;;;26.70;96406.00;;;;5114689;28;20214;-60
2022/09/05 11:13:50;;;;;;;0.77;0.77;;;26.70;30.00;27.20;96403.00;;;;5096713;28;20221;-60
2022/09/05 11:16:26;;;;;;;0.90;0.90;;;;;27.60;96402.00;;;;5114409;28;20252;-60
2022/09/05 11:19:02;;;;;;;0.60;0.60;;;27.90;27.20;27.90;96403.00;;;;5114546;28;20301;-60
2022/09/05 11:21:53;;;;;;;0.60;0.60;;;27.90;28.00;28.00;96403.00;;;;5114340;28;20233;-60
2022/09/05 11:24:34;;;;;;;0.52;0.52;;;28.10;29.40;28.30;96401.00;;;;5114381;28;20221;-59
2022/09/05 11:27:05;;;;;;;1.08;1.08;;;;;28.20;96400.00;;;;5114432;28;20254;-60
2022/09/05 11:29:42;;;;;;;0.70;0.70;;;28.40;25.90;28.40;96403.00;;;;5116579;28;20205;-62
2022/09/05 11:32:46;;;;;;;0.90;0.90;;;28.50;29.30;28.50;96408.00;;;;5096654;28;20216;-60
2022/09/05 11:35:21;;;;;;;0.40;0.40;;;28.60;27.30;28.20;96398.00;;;;5114255;28;20655;-60
2022/09/05 11:38:45;;;;;;;0.45;0.45;;;28.40;26.70;28.70;96403.00;;;;5096057;28;20213;-59
2022/09/05 11:41:54;;;;;;;1.23;1.13;;;;;28.80;96398.00;;;;5096187;28;20221;-59
2022/09/05 11:44:34;;;;;;;0.50;0.50;;;;;29.00;96398.00;;;;5114110;28;20196;-59
2022/09/05 11:47:53;;;;;;;0.68;0.68;;;;;29.40;96396.00;;;;5114035;28;20246;-61
2022/09/05 11:51:03;;;;;;;0.77;0.77;;;;;29.50;96395.00;;;;5012006;28;20224;-60
2022/09/05 11:54:32;;;;;;;0.68;0.68;;;29.90;32.40;29.70;96392.00;;;;4997294;28;20300;-60
2022/09/05 11:57:38;;;;;;;0.98;0.70;;;29.90;33.40;29.60;96397.00;;;;5113876;28;20227;-64
2022/09/05 12:00:19;;;;;;;0.70;0.70;;;29.80;26.00;29.70;96395.00;;;;5113882;28;20190;-60
2022/09/05 12:03:10;;;;;;;1.15;0.82;;;;;29.70;96397.00;;;;5113792;28;20210;-60
2022/09/05 12:06:06;;;;;;;0.68;0.68;;;;;29.80;96391.00;;;;5114005;28;20633;-60
2022/09/05 12:08:38;;;;;;;0.52;0.52;;;;;30.20;96415.00;;;;5113841;28;20221;-62
2022/09/05 12:11:28;;;;;;;0.50;0.50;;;;;29.10;96416.00;;;;5095722;28;20627;-60
2022/09/05 12:14:06;;;;;;;0.68;0.68;;;;;28.60;96416.00;;;;5113624;28;20193;-60
2022/09/05 12:16:59;;;;;;;0.75;0.75;;;29.10;26.90;28.20;96414.00;;;;5117241;28;20256;-61
2022/09/05 12:19:37;;;;;;;0.60;0.60;;;28.70;27.90;28.00;96413.00;;;;5117419;28;20528;-61
2022/09/05 12:22:26;;;;;;;0.70;0.70;;;28.40;28.60;28.00;96392.00;;;;5117431;28;20645;-61
2022/09/05 12:25:24;;;;;;;0.98;0.90;;;28.20;28.80;28.50;96383.00;;;;5117215;28;20193;-60
2022/09/05 12:27:58;;;;;;;0.55;0.55;;;28.60;28.00;29.00;96386.00;;;;5117284;28;20190;-61
2022/09/05 12:30:30;;;;;;;0.65;0.65;;;;;29.50;96386.00;;;;5117220;28;20259;-62